Time,TemperatureF,DewpointF,PressureIn,WindDirection,WindDirectionDegrees,WindSpeedMPH,WindSpeedGustMPH,Humidity,HourlyPrecipIn,Conditions,Clouds,dailyrainin,SoftwareType,DateUTC
2013-07-28 11:24:00,60.4,59.9,28.47,ESE,114,4.0,4.0,98,0.00,,---,1.18,VWS V14.01,2013-07-28 16:24:00,
2013-07-28 11:25:00,60.4,59.9,28.47,ESE,114,0.0,5.8,98,1.30,,---,1.18,VWS V14.01,2013-07-28 16:25:00,
2013-07-28 11:30:00,60.4,59.9,28.47,NNE,18,0.0,5.8,98,1.30,,---,1.18,VWS V14.01,2013-07-28 16:30:00,
2013-07-28 11:35:00,60.6,60.1,28.47,ENE,77,0.0,5.8,98,1.30,,---,1.18,VWS V14.01,2013-07-28 16:35:00,
2013-07-28 11:41:00,60.6,60.1,28.47,SE,146,0.0,5.8,98,1.30,,---,1.18,VWS V14.01,2013-07-28 16:41:00,
2013-07-28 11:46:00,60.8,60.0,28.47,ENE,59,2.2,5.8,97,1.30,,---,1.18,VWS V14.01,2013-07-28 16:46:00,
2013-07-28 11:52:00,60.6,60.1,28.47,ENE,75,0.0,5.8,98,1.30,,---,1.18,VWS V14.01,2013-07-28 16:52:00,
2013-07-28 11:57:00,60.6,60.1,28.50,North,6,0.0,5.8,98,1.30,,---,1.18,VWS V14.01,2013-07-28 16:57:00,
2013-07-28 12:02:00,60.8,60.0,28.50,WNW,291,2.2,3.6,97,0.00,,---,1.18,VWS V14.01,2013-07-28 17:02:00,
2013-07-28 12:07:00,60.8,60.0,28.50,WNW,295,0.0,4.9,97,0.00,,---,1.18,VWS V14.01,2013-07-28 17:07:00,
2013-07-28 12:12:00,60.8,60.0,28.50,ESE,110,2.2,4.9,97,0.00,,---,1.18,VWS V14.01,2013-07-28 17:12:00,
2013-07-28 12:17:00,60.8,60.0,28.50,ENE,71,0.0,4.9,97,0.00,,---,1.18,VWS V14.01,2013-07-28 17:17:00,
2013-07-28 12:22:00,60.8,60.0,28.50,NE,51,0.0,4.9,97,0.00,,---,1.18,VWS V14.01,2013-07-28 17:22:00,
2013-07-28 12:27:00,61.0,60.1,28.50,North,6,0.0,4.9,97,0.00,,---,1.18,VWS V14.01,2013-07-28 17:27:00,
2013-07-28 12:32:00,61.0,60.1,28.50,NE,45,0.0,4.9,97,0.00,,---,1.18,VWS V14.01,2013-07-28 17:32:00,
2013-07-28 12:38:00,61.0,60.1,28.47,ENE,61,0.0,4.9,97,0.00,,---,1.18,VWS V14.01,2013-07-28 17:38:00,
2013-07-28 12:43:00,61.2,60.3,28.47,North,353,0.0,4.9,97,0.00,,---,1.18,VWS V14.01,2013-07-28 17:43:00,
2013-07-28 12:48:00,61.2,60.3,28.47,East,91,0.0,4.9,97,0.00,,---,1.18,VWS V14.01,2013-07-28 17:48:00,
2013-07-28 12:53:00,61.2,60.3,28.50,NNW,334,0.0,4.9,97,0.00,,---,1.18,VWS V14.01,2013-07-28 17:53:00,
2013-07-28 12:58:00,61.2,60.3,28.50,ENE,73,0.0,4.9,97,0.00,,---,1.18,VWS V14.01,2013-07-28 17:58:00,
2013-07-28 13:03:00,61.2,60.3,28.50,North,3,2.7,3.6,97,0.00,,---,1.18,VWS V14.01,2013-07-28 18:03:00,
2013-07-28 13:08:00,61.2,60.3,28.50,NNE,19,0.0,3.6,97,0.00,,---,1.18,VWS V14.01,2013-07-28 18:08:00,
2013-07-28 13:13:00,61.3,60.5,28.50,ESE,117,0.0,3.6,97,0.00,,---,1.18,VWS V14.01,2013-07-28 18:13:00,
2013-07-28 13:18:00,61.3,60.5,28.50,North,11,0.0,4.0,97,0.00,,---,1.18,VWS V14.01,2013-07-28 18:18:00,
2013-07-28 13:24:00,61.3,60.5,28.47,North,7,3.6,4.0,97,0.00,,---,1.18,VWS V14.01,2013-07-28 18:24:00,
2013-07-28 13:29:00,61.3,60.5,28.47,ENE,69,0.0,4.0,97,0.00,,---,1.18,VWS V14.01,2013-07-28 18:29:00,
2013-07-28 13:34:00,61.5,60.7,28.47,North,353,2.7,4.0,97,0.00,,---,1.18,VWS V14.01,2013-07-28 18:34:00,
2013-07-28 13:39:00,61.5,60.7,28.47,North,0,3.6,4.9,97,0.00,,---,1.18,VWS V14.01,2013-07-28 18:39:00,
2013-07-28 13:44:00,61.5,60.7,28.47,NNE,12,0.0,4.9,97,0.00,,---,1.18,VWS V14.01,2013-07-28 18:44:00,
2013-07-28 13:49:00,61.3,60.5,28.47,North,353,3.1,4.9,97,0.00,,---,1.18,VWS V14.01,2013-07-28 18:49:00,
2013-07-28 13:54:00,61.3,60.5,28.47,NNE,18,0.0,4.9,97,0.00,,---,1.18,VWS V14.01,2013-07-28 18:54:00,
2013-07-28 13:59:00,61.5,60.7,28.47,North,4,0.0,4.9,97,0.00,,---,1.18,VWS V14.01,2013-07-28 18:59:00,
2013-07-28 14:04:00,61.5,60.7,28.47,North,357,2.2,5.4,97,0.00,,---,1.18,VWS V14.01,2013-07-28 19:04:00,
2013-07-28 14:09:00,61.7,60.8,28.47,NNW,345,0.0,5.4,97,0.04,,---,1.22,VWS V14.01,2013-07-28 19:09:00,
2013-07-28 14:14:00,61.9,61.0,28.47,ENE,66,0.0,5.4,97,0.04,,---,1.22,VWS V14.01,2013-07-28 19:14:00,
2013-07-28 14:20:00,61.9,61.0,28.47,ENE,66,3.6,5.4,97,0.04,,---,1.22,VWS V14.01,2013-07-28 19:20:00,
2013-07-28 14:25:00,62.1,61.2,28.47,NNE,16,0.0,5.4,97,0.04,,---,1.22,VWS V14.01,2013-07-28 19:25:00,
2013-07-28 14:30:00,62.2,61.4,28.47,NNW,328,0.0,5.4,97,0.04,,---,1.22,VWS V14.01,2013-07-28 19:30:00,
2013-07-28 14:35:00,62.4,61.6,28.47,NW,319,0.0,5.4,97,0.04,,---,1.22,VWS V14.01,2013-07-28 19:35:00,
2013-07-28 14:40:00,62.6,61.7,28.47,NNE,17,0.0,5.4,97,0.04,,---,1.22,VWS V14.01,2013-07-28 19:40:00,
2013-07-28 14:45:00,62.6,61.7,28.47,North,7,4.0,5.4,97,0.04,,---,1.22,VWS V14.01,2013-07-28 19:45:00,
2013-07-28 14:50:00,62.6,61.7,28.47,NNW,346,0.0,5.4,97,0.04,,---,1.22,VWS V14.01,2013-07-28 19:50:00,
2013-07-28 14:56:00,62.6,61.7,28.47,SE,144,0.0,5.4,97,0.04,,---,1.22,VWS V14.01,2013-07-28 19:56:00,
2013-07-28 15:01:00,62.8,61.9,28.47,North,0,3.1,3.6,97,0.04,,---,1.22,VWS V14.01,2013-07-28 20:01:00,
2013-07-28 15:06:00,62.8,61.9,28.47,NNE,20,0.0,5.8,97,0.04,,---,1.22,VWS V14.01,2013-07-28 20:06:00,
2013-07-28 15:11:00,63.0,62.1,28.47,North,353,2.2,5.8,97,0.04,,---,1.22,VWS V14.01,2013-07-28 20:11:00,
2013-07-28 15:16:00,63.1,62.3,28.47,NNE,23,0.0,5.8,97,0.04,,---,1.22,VWS V14.01,2013-07-28 20:16:00,
2013-07-28 15:21:00,63.3,62.5,28.47,ESE,111,4.0,5.8,97,0.04,,---,1.22,VWS V14.01,2013-07-28 20:21:00,
2013-07-28 15:26:00,63.5,62.6,28.47,North,353,0.0,5.8,97,0.04,,---,1.22,VWS V14.01,2013-07-28 20:26:00,
2013-07-28 15:32:00,63.7,62.8,28.47,North,1,4.0,5.8,97,0.04,,---,1.22,VWS V14.01,2013-07-28 20:32:00,
2013-07-28 15:37:00,63.7,62.8,28.47,NNW,342,3.6,5.8,97,0.04,,---,1.22,VWS V14.01,2013-07-28 20:37:00,
2013-07-28 15:42:00,63.7,62.8,28.47,NNW,338,3.6,5.8,97,0.04,,---,1.22,VWS V14.01,2013-07-28 20:42:00,
2013-07-28 15:47:00,63.7,62.8,28.47,NNE,16,7.6,7.6,97,0.04,,---,1.22,VWS V14.01,2013-07-28 20:47:00,
2013-07-28 15:52:00,63.7,62.8,28.47,NNE,27,0.0,7.6,97,0.04,,---,1.22,VWS V14.01,2013-07-28 20:52:00,
2013-07-28 15:57:00,63.9,63.0,28.47,NNW,342,0.0,7.6,97,0.04,,---,1.22,VWS V14.01,2013-07-28 20:57:00,
2013-07-28 16:02:00,63.9,63.0,28.47,North,11,3.1,8.1,97,0.00,,---,1.22,VWS V14.01,2013-07-28 21:02:00,
2013-07-28 16:07:00,63.9,63.0,28.47,NE,41,0.0,8.1,97,0.00,,---,1.22,VWS V14.01,2013-07-28 21:07:00,
2013-07-28 16:12:00,63.9,63.0,28.47,North,6,3.6,8.1,97,0.04,,---,1.26,VWS V14.01,2013-07-28 21:12:00,
2013-07-28 16:17:00,63.9,63.0,28.47,ESE,103,3.1,8.1,97,0.04,,---,1.26,VWS V14.01,2013-07-28 21:17:00,
2013-07-28 16:23:00,63.9,63.0,28.47,NNE,19,5.4,8.1,97,0.04,,---,1.26,VWS V14.01,2013-07-28 21:23:00,
2013-07-28 16:28:00,63.9,63.0,28.47,NNE,14,3.6,8.1,97,0.04,,---,1.26,VWS V14.01,2013-07-28 21:28:00,
2013-07-28 16:35:00,63.9,63.0,28.47,NNW,332,0.0,0.0,97,0.00,,---,1.26,VWS V14.01,2013-07-28 21:35:00,
2013-07-28 16:37:00,63.9,63.0,28.47,NNW,332,0.0,0.0,97,0.04,,---,1.26,VWS V14.01,2013-07-28 21:37:00,
2013-07-28 16:42:00,64.0,63.2,28.47,NE,36,3.1,3.1,97,0.04,,---,1.26,VWS V14.01,2013-07-28 21:42:00,
2013-07-28 16:47:00,64.0,63.2,28.47,NE,34,2.2,4.5,97,0.04,,---,1.26,VWS V14.01,2013-07-28 21:47:00,
2013-07-28 16:53:00,64.0,63.2,28.47,ENE,76,0.0,4.5,97,0.04,,---,1.26,VWS V14.01,2013-07-28 21:53:00,
2013-07-28 16:58:00,64.0,63.2,28.47,North,7,0.0,5.8,97,0.04,,---,1.26,VWS V14.01,2013-07-28 21:58:00,
2013-07-28 17:03:00,64.0,63.2,28.47,North,357,0.0,0.0,97,0.04,,---,1.26,VWS V14.01,2013-07-28 22:03:00,
2013-07-28 17:08:00,64.2,63.3,28.47,North,11,0.0,5.4,97,0.04,,---,1.26,VWS V14.01,2013-07-28 22:08:00,
2013-07-28 17:13:00,64.2,63.3,28.47,North,0,3.1,5.4,97,0.04,,---,1.26,VWS V14.01,2013-07-28 22:13:00,
2013-07-28 17:18:00,64.4,63.5,28.47,NNE,33,2.7,5.4,97,0.04,,---,1.26,VWS V14.01,2013-07-28 22:18:00,
2013-07-28 17:23:00,64.4,63.5,28.47,North,0,0.0,5.4,97,0.04,,---,1.26,VWS V14.01,2013-07-28 22:23:00,
2013-07-28 17:28:00,64.4,63.5,28.47,NE,47,0.0,5.4,97,0.04,,---,1.26,VWS V14.01,2013-07-28 22:28:00,
2013-07-28 17:33:00,64.6,63.7,28.47,NNE,16,0.0,5.4,97,0.04,,---,1.26,VWS V14.01,2013-07-28 22:33:00,
2013-07-28 17:38:00,64.6,63.7,28.44,North,353,0.0,0.0,97,0.04,,---,1.26,VWS V14.01,2013-07-28 22:38:00,
2013-07-28 17:44:00,64.6,63.7,28.44,North,5,0.0,4.0,97,0.04,,---,1.26,VWS V14.01,2013-07-28 22:44:00,
2013-07-28 17:49:00,64.6,63.7,28.44,North,10,2.7,4.0,97,0.04,,---,1.26,VWS V14.01,2013-07-28 22:49:00,
2013-07-28 17:54:00,64.6,63.7,28.44,NNE,15,0.0,4.0,97,0.04,,---,1.26,VWS V14.01,2013-07-28 22:54:00,
2013-07-28 17:59:00,64.6,63.7,28.44,NE,49,0.0,4.0,97,0.04,,---,1.26,VWS V14.01,2013-07-28 22:59:00,
2013-07-28 18:04:00,64.6,63.7,28.44,NNW,341,3.6,3.6,97,0.00,,---,1.26,VWS V14.01,2013-07-28 23:04:00,
2013-07-28 18:09:00,64.6,63.7,28.44,North,353,0.0,6.3,97,0.00,,---,1.26,VWS V14.01,2013-07-28 23:09:00,
2013-07-28 18:15:00,64.4,63.5,28.44,North,353,0.0,6.3,97,0.00,,---,1.26,VWS V14.01,2013-07-28 23:15:00,
2013-07-28 18:20:00,64.4,63.5,28.44,North,357,2.2,6.3,97,0.00,,---,1.26,VWS V14.01,2013-07-28 23:20:00,
2013-07-28 18:25:00,64.4,63.5,28.44,North,357,0.0,6.3,97,0.00,,---,1.26,VWS V14.01,2013-07-28 23:25:00,
2013-07-28 18:30:00,64.4,63.5,28.44,North,7,3.1,6.3,97,0.00,,---,1.26,VWS V14.01,2013-07-28 23:30:00,
2013-07-28 18:35:00,64.4,63.5,28.44,North,357,0.0,6.3,97,0.00,,---,1.26,VWS V14.01,2013-07-28 23:35:00,
2013-07-28 18:40:00,64.4,63.5,28.44,North,9,0.0,6.3,97,0.00,,---,1.26,VWS V14.01,2013-07-28 23:40:00,
2013-07-28 18:45:00,64.4,63.5,28.44,NNE,13,2.7,6.3,97,0.00,,---,1.26,VWS V14.01,2013-07-28 23:45:00,
2013-07-28 18:50:00,64.4,63.5,28.44,North,11,0.0,6.3,97,0.04,,---,1.30,VWS V14.01,2013-07-28 23:50:00,
2013-07-28 18:55:00,64.4,63.5,28.44,North,357,2.7,6.3,97,0.04,,---,1.30,VWS V14.01,2013-07-28 23:55:00,
2013-07-28 19:00:00,64.2,63.3,28.44,North,357,0.0,4.0,97,0.04,,---,1.30,VWS V14.01,2013-07-29 00:00:00,
2013-07-28 19:05:00,64.2,63.3,28.44,NNE,16,5.4,5.8,97,0.04,,---,1.30,VWS V14.01,2013-07-29 00:05:00,
2013-07-28 19:11:00,64.2,63.3,28.44,NNE,31,4.0,5.8,97,0.04,,---,1.30,VWS V14.01,2013-07-29 00:11:00,
2013-07-28 19:16:00,64.2,63.3,28.44,NNE,17,0.0,5.8,97,0.04,,---,1.30,VWS V14.01,2013-07-29 00:16:00,
2013-07-28 19:21:00,64.2,63.3,28.44,North,0,0.0,5.8,97,0.04,,---,1.30,VWS V14.01,2013-07-29 00:21:00,
2013-07-28 19:26:00,64.2,63.3,28.44,NNE,20,0.0,5.8,97,0.04,,---,1.30,VWS V14.01,2013-07-29 00:26:00,
2013-07-28 19:31:00,64.2,63.3,28.44,North,7,4.5,5.8,97,0.04,,---,1.30,VWS V14.01,2013-07-29 00:31:00,
2013-07-28 19:37:00,64.2,63.3,28.44,North,2,0.0,5.8,97,0.04,,---,1.30,VWS V14.01,2013-07-29 00:37:00,
2013-07-28 19:42:00,64.2,63.3,28.44,East,89,0.0,5.8,97,0.04,,---,1.30,VWS V14.01,2013-07-29 00:42:00,
2013-07-28 19:47:00,64.0,63.2,28.44,NNE,17,0.0,5.8,97,0.04,,---,1.30,VWS V14.01,2013-07-29 00:47:00,
2013-07-28 19:52:00,64.0,63.2,28.44,NNE,17,2.2,5.8,97,0.04,,---,1.30,VWS V14.01,2013-07-29 00:52:00,
2013-07-28 19:57:00,63.9,63.0,28.44,NNE,32,2.2,5.8,97,0.04,,---,1.30,VWS V14.01,2013-07-29 00:57:00,
2013-07-28 20:02:00,63.9,63.0,28.44,North,357,3.6,3.6,97,0.00,,---,1.30,VWS V14.01,2013-07-29 01:02:00,
2013-07-28 20:07:00,63.9,63.0,28.44,North,0,0.0,5.8,97,0.00,,---,1.30,VWS V14.01,2013-07-29 01:07:00,
2013-07-28 20:12:00,63.7,62.8,28.44,NNE,21,3.1,5.8,97,0.00,,---,1.30,VWS V14.01,2013-07-29 01:12:00,
2013-07-28 20:17:00,63.7,62.8,28.44,NNE,17,4.9,5.8,97,0.00,,---,1.30,VWS V14.01,2013-07-29 01:17:00,
2013-07-28 20:22:00,63.7,62.8,28.44,North,357,3.1,5.8,97,0.00,,---,1.30,VWS V14.01,2013-07-29 01:22:00,
2013-07-28 20:28:00,63.7,62.8,28.44,North,9,2.7,8.1,97,0.04,,---,1.34,VWS V14.01,2013-07-29 01:28:00,
2013-07-28 20:34:00,63.5,62.6,28.44,North,9,2.2,8.3,97,0.08,,---,1.38,VWS V14.01,2013-07-29 01:34:00,
2013-07-28 20:39:00,63.5,62.6,28.44,North,353,0.0,8.3,97,0.08,,---,1.38,VWS V14.01,2013-07-29 01:39:00,
2013-07-28 20:44:00,63.5,62.9,28.44,North,10,0.0,8.3,98,0.08,,---,1.38,VWS V14.01,2013-07-29 01:44:00,
2013-07-28 20:49:00,63.5,62.9,28.44,NE,43,2.7,8.3,98,0.08,,---,1.38,VWS V14.01,2013-07-29 01:49:00,
2013-07-28 20:55:00,63.5,62.9,28.44,NNE,25,0.0,8.3,98,0.08,,---,1.38,VWS V14.01,2013-07-29 01:55:00,
2013-07-28 21:00:00,63.5,62.9,28.44,NNW,339,4.9,8.3,98,0.08,,---,1.38,VWS V14.01,2013-07-29 02:00:00,
2013-07-28 21:05:00,63.3,62.8,28.44,NNE,17,0.0,5.4,98,0.12,,---,1.42,VWS V14.01,2013-07-29 02:05:00,
2013-07-28 21:10:00,63.3,62.8,28.44,ENE,60,2.7,5.4,98,0.12,,---,1.42,VWS V14.01,2013-07-29 02:10:00,
2013-07-28 21:15:00,63.1,62.6,28.44,NE,46,2.7,5.4,98,0.12,,---,1.42,VWS V14.01,2013-07-29 02:15:00,
2013-07-28 21:20:00,63.1,62.6,28.44,NNE,28,0.0,5.4,98,0.12,,---,1.42,VWS V14.01,2013-07-29 02:20:00,
2013-07-28 21:26:00,63.1,62.6,28.44,NNE,20,0.0,5.8,98,0.12,,---,1.42,VWS V14.01,2013-07-29 02:26:00,
2013-07-28 21:31:00,63.1,62.6,28.44,NW,310,3.1,6.3,98,0.12,,---,1.42,VWS V14.01,2013-07-29 02:31:00,
2013-07-28 21:37:00,63.1,62.6,28.44,NNE,26,2.2,6.3,98,0.12,,---,1.42,VWS V14.01,2013-07-29 02:37:00,
2013-07-28 21:43:00,63.1,62.6,28.44,East,83,0.0,6.3,98,0.12,,---,1.42,VWS V14.01,2013-07-29 02:43:00,
2013-07-28 21:48:00,63.0,62.4,28.44,East,89,0.0,6.3,98,0.12,,---,1.42,VWS V14.01,2013-07-29 02:48:00,
2013-07-28 21:54:00,63.0,62.4,28.47,East,95,0.0,6.3,98,0.12,,---,1.42,VWS V14.01,2013-07-29 02:54:00,
2013-07-28 21:59:00,63.0,62.4,28.47,ENE,76,0.0,6.3,98,0.12,,---,1.42,VWS V14.01,2013-07-29 02:59:00,
2013-07-28 22:05:00,62.8,62.2,28.47,NNE,18,2.7,4.0,98,0.08,,---,1.46,VWS V14.01,2013-07-29 03:05:00,
2013-07-28 22:10:00,62.6,62.0,28.47,North,6,0.0,4.0,98,0.08,,---,1.46,VWS V14.01,2013-07-29 03:10:00,
2013-07-28 22:15:00,62.6,62.0,28.47,NW,324,0.0,4.0,98,0.12,,---,1.50,VWS V14.01,2013-07-29 03:15:00,
2013-07-28 22:20:00,62.4,61.8,28.47,NNE,25,2.7,4.0,98,0.16,,---,1.54,VWS V14.01,2013-07-29 03:20:00,
2013-07-28 22:25:00,62.4,61.8,28.47,NNE,25,0.0,4.0,98,0.16,,---,1.54,VWS V14.01,2013-07-29 03:25:00,
2013-07-28 22:31:00,62.2,61.7,28.47,NNW,348,0.0,4.0,98,0.16,,---,1.54,VWS V14.01,2013-07-29 03:31:00,
2013-07-28 22:36:00,62.2,61.7,28.47,North,11,3.1,4.5,98,0.20,,---,1.57,VWS V14.01,2013-07-29 03:36:00,
2013-07-28 22:42:00,62.2,61.7,28.47,North,1,0.0,4.5,98,0.24,,---,1.61,VWS V14.01,2013-07-29 03:42:00,
2013-07-28 22:47:00,62.2,61.7,28.47,NNE,14,2.7,4.9,98,0.24,,---,1.61,VWS V14.01,2013-07-29 03:47:00,
2013-07-28 22:53:00,62.4,61.8,28.47,ENE,73,0.0,5.4,98,0.24,,---,1.61,VWS V14.01,2013-07-29 03:53:00,
2013-07-28 22:58:00,62.4,61.8,28.47,NNE,32,0.0,5.4,98,0.28,,---,1.65,VWS V14.01,2013-07-29 03:58:00,
2013-07-28 23:01:00,62.4,61.8,28.47,North,1,0.0,3.6,98,0.24,,---,1.65,VWS V14.01,2013-07-29 04:01:00,
2013-07-28 23:02:00,62.4,61.8,28.47,North,1,0.0,3.6,98,0.24,,---,1.65,VWS V14.01,2013-07-29 04:02:00,
2013-07-28 23:08:00,62.4,61.8,28.47,North,0,4.0,5.4,98,0.24,,---,1.65,VWS V14.01,2013-07-29 04:08:00,
2013-07-28 23:13:00,62.2,61.7,28.47,NE,45,0.0,6.7,98,0.28,,---,1.69,VWS V14.01,2013-07-29 04:13:00,
2013-07-28 23:18:00,62.2,61.7,28.47,NE,38,4.9,6.7,98,0.28,,---,1.69,VWS V14.01,2013-07-29 04:18:00,
2013-07-28 23:23:00,62.2,61.7,28.44,NNE,12,2.2,6.7,98,0.28,,---,1.69,VWS V14.01,2013-07-29 04:23:00,
2013-07-28 23:28:00,62.2,61.7,28.44,North,3,3.1,6.7,98,0.28,,---,1.69,VWS V14.01,2013-07-29 04:28:00,
2013-07-28 23:33:00,62.2,61.7,28.44,North,357,6.7,8.3,98,0.28,,---,1.69,VWS V14.01,2013-07-29 04:33:00,
2013-07-28 23:38:00,62.2,61.7,28.44,North,5,2.2,8.7,98,0.31,,---,1.73,VWS V14.01,2013-07-29 04:38:00,
2013-07-28 23:43:00,62.2,61.7,28.44,North,5,0.0,8.7,98,0.31,,---,1.73,VWS V14.01,2013-07-29 04:43:00,
2013-07-28 23:48:00,62.2,61.7,28.44,NNW,334,0.0,8.7,98,0.31,,---,1.73,VWS V14.01,2013-07-29 04:48:00,
2013-07-28 23:53:00,62.2,61.7,28.44,North,353,3.1,8.7,98,0.31,,---,1.73,VWS V14.01,2013-07-29 04:53:00,
2013-07-28 23:58:00,62.4,61.8,28.44,North,6,5.8,8.7,98,0.31,,---,1.73,VWS V14.01,2013-07-29 04:58:00,